createdAt,value
2018-04-19T00:00:11.467Z,101461
2018-04-19T00:05:13.751Z,101456
2018-04-19T00:10:15.285Z,101460
2018-04-19T00:15:16.831Z,101456
2018-04-19T00:20:18.392Z,101452
2018-04-19T00:25:19.952Z,101443
2018-04-19T00:30:21.596Z,101453
2018-04-19T00:35:23.150Z,101457
2018-04-19T00:40:25.455Z,101445
2018-04-19T00:45:27.018Z,101448
2018-04-19T00:50:28.516Z,101443
2018-04-19T00:55:30.024Z,101439
2018-04-19T01:00:31.579Z,101442
2018-04-19T01:05:33.243Z,101439
2018-04-19T01:10:34.796Z,101438
2018-04-19T01:15:36.356Z,101444
2018-04-19T01:20:37.877Z,101443
2018-04-19T01:25:40.140Z,101440
2018-04-19T01:30:41.677Z,101442
2018-04-19T01:36:01.981Z,101446
2018-04-19T01:41:03.523Z,101439
2018-04-19T01:46:05.094Z,101441
2018-04-19T01:51:06.663Z,101442
2018-04-19T01:56:08.249Z,101446
2018-04-19T02:01:09.810Z,101445
2018-04-19T02:06:11.379Z,101447
2018-04-19T02:11:12.960Z,101453
2018-04-19T02:16:14.521Z,101446
2018-04-19T02:21:16.043Z,101455
2018-04-19T02:26:17.652Z,101447
2018-04-19T02:31:19.194Z,101442
2018-04-19T02:36:21.531Z,101453
2018-04-19T02:41:23.083Z,101444
2018-04-19T02:46:24.667Z,101441
2018-04-19T02:51:26.423Z,101439
2018-04-19T02:56:27.960Z,101440
2018-04-19T03:01:30.222Z,101451
2018-04-19T03:06:31.812Z,101440
2018-04-19T03:11:34.198Z,101442
2018-04-19T03:16:36.502Z,101448
2018-04-19T03:21:38.069Z,101448
2018-04-19T03:26:39.644Z,101434
2018-04-19T03:31:41.219Z,101436
2018-04-19T03:36:49.910Z,101438
2018-04-19T03:41:51.427Z,101427
2018-04-19T03:46:52.971Z,101433
2018-04-19T03:51:55.340Z,101438
2018-04-19T03:56:57.680Z,101434
2018-04-19T04:01:59.257Z,101429
2018-04-19T04:07:00.823Z,101422
2018-04-19T04:12:02.397Z,101421
2018-04-19T04:17:22.554Z,101425
2018-04-19T04:22:42.502Z,101427
2018-04-19T04:27:44.185Z,101431
2018-04-19T04:32:45.714Z,101425
2018-04-19T04:37:47.287Z,101430
2018-04-19T04:42:49.681Z,101438
2018-04-19T04:47:51.236Z,101436
2018-04-19T04:52:53.667Z,101436
2018-04-19T04:57:55.222Z,101436
2018-04-19T05:02:56.776Z,101426
2018-04-19T05:07:58.330Z,101431
2018-04-19T05:12:59.873Z,101427
2018-04-19T05:18:01.576Z,101423
2018-04-19T05:23:03.136Z,101429
2018-04-19T05:28:04.672Z,101424
2018-04-19T05:33:06.968Z,101425
2018-04-19T05:38:08.513Z,101425
2018-04-19T05:43:10.794Z,101428
2018-04-19T05:48:13.074Z,101424
2018-04-19T05:53:14.626Z,101430
2018-04-19T05:58:16.231Z,101425
2018-04-19T06:03:18.529Z,101421
2018-04-19T06:08:20.068Z,101439
2018-04-19T06:13:21.616Z,101426
2018-04-19T06:18:23.199Z,101431
2018-04-19T06:23:24.707Z,101438
2018-04-19T06:28:26.242Z,101423
2018-04-19T06:33:28.624Z,101434
2018-04-19T06:38:30.207Z,101432
2018-04-19T06:43:32.467Z,101428
2018-04-19T06:48:34.034Z,101437
2018-04-19T06:53:35.599Z,101435
2018-04-19T06:58:37.163Z,101458
2018-04-19T07:03:38.708Z,101465
2018-04-19T07:08:40.219Z,101456
2018-04-19T07:13:41.786Z,101461
2018-04-19T07:18:43.393Z,101469
2018-04-19T07:23:44.948Z,101460
2018-04-19T07:28:46.525Z,101458
2018-04-19T07:33:48.101Z,101465
2018-04-19T07:38:49.690Z,101463
2018-04-19T07:43:51.228Z,101458
2018-04-19T07:48:52.767Z,101458
2018-04-19T07:53:55.366Z,101459
2018-04-19T07:58:57.824Z,101474
2018-04-19T08:03:59.355Z,101479
2018-04-19T08:09:00.959Z,101469
2018-04-19T08:14:02.538Z,101480
2018-04-19T08:19:04.100Z,101463
2018-04-19T08:24:05.627Z,101460
2018-04-19T08:29:07.151Z,101464
2018-04-19T08:34:08.819Z,101461
2018-04-19T08:39:10.372Z,101459
2018-04-19T08:44:11.935Z,101467
2018-04-19T08:49:13.570Z,101460
2018-04-19T08:54:15.086Z,101453
2018-04-19T08:59:16.771Z,101460
2018-04-19T09:04:18.339Z,101449
2018-04-19T09:09:19.848Z,101443
2018-04-19T09:14:21.413Z,101435
2018-04-19T09:19:23.159Z,101441
2018-04-19T09:24:25.469Z,101445
2018-04-19T09:29:27.727Z,101440
2018-04-19T09:34:30.036Z,101436
2018-04-19T09:39:31.624Z,101438
2018-04-19T09:44:33.152Z,101438
2018-04-19T09:49:35.492Z,101430
2018-04-19T09:54:37.045Z,101433
2018-04-19T09:59:38.585Z,101418
2018-04-19T10:04:40.175Z,101425
2018-04-19T10:09:41.780Z,101419
2018-04-19T10:14:43.263Z,101418
2018-04-19T10:19:44.785Z,101401
2018-04-19T10:24:46.499Z,101396
2018-04-19T10:29:48.017Z,101397
2018-04-19T10:34:49.555Z,101396
2018-04-19T10:39:51.834Z,101389
2018-04-19T10:44:53.556Z,101372
2018-04-19T10:49:55.102Z,101372
2018-04-19T10:54:56.599Z,101375
2018-04-19T10:59:58.188Z,101360
2018-04-19T11:04:59.891Z,101366
2018-04-19T11:10:02.399Z,101340
2018-04-19T11:15:04.151Z,101355
2018-04-19T11:20:06.533Z,101341
2018-04-19T11:25:08.821Z,101336
2018-04-19T11:30:11.144Z,101322
2018-04-19T11:35:12.661Z,101328
2018-04-19T11:40:14.188Z,101317
2018-04-19T11:45:15.884Z,101314
2018-04-19T11:50:17.417Z,101317
2018-04-19T11:55:18.989Z,101302
2018-04-19T12:00:20.525Z,101306
2018-04-19T12:05:22.831Z,101293
2018-04-19T12:10:24.426Z,101297
2018-04-19T12:15:25.981Z,101299
2018-04-19T12:20:27.566Z,101286
2018-04-19T12:25:29.135Z,101283
2018-04-19T12:30:30.726Z,101284
2018-04-19T12:35:32.307Z,101279
2018-04-19T12:40:33.872Z,101284
2018-04-19T12:45:35.407Z,101272
2018-04-19T12:50:36.920Z,101270
2018-04-19T12:55:39.261Z,101277
2018-04-19T13:00:40.797Z,101245
2018-04-19T13:05:42.390Z,101250
2018-04-19T13:10:44.150Z,101235
2018-04-19T13:15:45.733Z,101230
2018-04-19T13:20:47.311Z,101242
2018-04-19T13:25:48.969Z,101224
2018-04-19T13:30:50.491Z,101233
2018-04-19T13:35:53.065Z,101218
2018-04-19T13:41:01.767Z,101217
2018-04-19T13:46:03.315Z,101197
2018-04-19T13:51:04.898Z,101183
2018-04-19T13:56:06.486Z,101187
2018-04-19T14:01:08.148Z,101185
2018-04-19T14:06:09.752Z,101172
2018-04-19T14:11:11.357Z,101173
2018-04-19T14:16:12.892Z,101166
2018-04-19T14:21:14.599Z,101153
2018-04-19T14:26:16.146Z,101144
2018-04-19T14:31:18.462Z,101143
2018-04-19T14:36:20.136Z,101146
2018-04-19T14:41:21.692Z,101151
2018-04-19T14:46:23.230Z,101148
2018-04-19T14:51:24.778Z,101138
2018-04-19T14:56:26.332Z,101144
2018-04-19T15:01:27.903Z,101137
2018-04-19T15:06:29.564Z,101137
2018-04-19T15:11:31.124Z,101144
2018-04-19T15:16:32.732Z,101129
2018-04-19T15:21:34.289Z,101121
2018-04-19T15:26:35.850Z,101131
2018-04-19T15:31:37.447Z,101124
2018-04-19T15:36:38.997Z,101117
2018-04-19T15:41:40.586Z,101115
2018-04-19T15:46:42.284Z,101121
2018-04-19T15:51:43.881Z,101121
2018-04-19T15:56:45.457Z,101121
2018-04-19T16:01:47.020Z,101115
2018-04-19T16:06:48.596Z,101113
2018-04-19T16:11:53.081Z,101115
2018-04-19T16:16:51.772Z,101109
2018-04-19T16:21:53.309Z,101109
2018-04-19T16:26:54.903Z,101110
2018-04-19T16:31:56.488Z,101110
2018-04-19T16:36:58.844Z,101110
2018-04-19T16:42:00.559Z,101100
2018-04-19T16:47:02.348Z,101106
2018-04-19T16:52:03.921Z,101117
2018-04-19T16:57:05.466Z,101115
2018-04-19T17:02:07.736Z,101117
2018-04-19T17:07:10.021Z,101110
2018-04-19T17:12:12.533Z,101105
2018-04-19T17:17:14.124Z,101105
2018-04-19T17:22:15.707Z,101104
2018-04-19T17:27:17.324Z,101104
2018-04-19T17:32:19.810Z,101104
2018-04-19T17:37:22.120Z,101112
2018-04-19T17:42:23.947Z,101108
2018-04-19T17:47:25.578Z,101103
2018-04-19T17:52:27.154Z,101104
2018-04-19T17:57:28.756Z,101110
2018-04-19T18:02:30.289Z,101112
2018-04-19T18:07:31.856Z,101113
2018-04-19T18:12:33.715Z,101109
2018-04-19T18:17:35.345Z,101117
2018-04-19T18:22:36.918Z,101116
2018-04-19T18:27:38.534Z,101105
2018-04-19T18:32:40.184Z,101118
2018-04-19T18:37:42.487Z,101120
2018-04-19T18:42:44.234Z,101126
2018-04-19T18:47:46.616Z,101129
2018-04-19T18:52:49.045Z,101148
2018-04-19T18:57:50.840Z,101151
2018-04-19T19:02:52.456Z,101146
2018-04-19T19:07:54.854Z,101147
2018-04-19T19:12:57.207Z,101155
2018-04-19T19:18:17.377Z,101152
2018-04-19T19:23:19.054Z,101157
2018-04-19T19:28:20.649Z,101159
2018-04-19T19:33:22.428Z,101167
2018-04-19T19:38:24.033Z,101172
2018-04-19T19:43:25.568Z,101173
2018-04-19T19:48:27.111Z,101176
2018-04-19T19:53:28.721Z,101176
2018-04-19T19:58:31.053Z,101169
2018-04-19T20:03:32.609Z,101162
2018-04-19T20:08:34.227Z,101160
2018-04-19T20:13:35.844Z,101157
2018-04-19T20:18:37.411Z,101161
2018-04-19T20:23:38.991Z,101159
2018-04-19T20:28:40.554Z,101150
2018-04-19T20:33:42.151Z,101156
2018-04-19T20:38:43.789Z,101154
2018-04-19T20:43:45.368Z,101146
2018-04-19T20:48:46.978Z,101148
2018-04-19T20:53:48.587Z,101150
2018-04-19T20:58:50.187Z,101146
2018-04-19T21:03:51.846Z,101145
2018-04-19T21:08:53.441Z,101144
2018-04-19T21:13:55.001Z,101144
2018-04-19T21:18:56.657Z,101135
2018-04-19T21:23:58.246Z,101131
2018-04-19T21:28:59.991Z,101130
2018-04-19T21:34:01.585Z,101124
2018-04-19T21:39:03.176Z,101117
2018-04-19T21:44:04.754Z,101121
2018-04-19T21:49:06.301Z,101112
2018-04-19T21:54:07.897Z,101106
2018-04-19T21:59:09.617Z,101110
2018-04-19T22:04:11.332Z,101106
2018-04-19T22:09:12.940Z,101093
2018-04-19T22:14:14.547Z,101090
2018-04-19T22:19:16.113Z,101100
2018-04-19T22:24:17.785Z,101090
2018-04-19T22:29:19.375Z,101079
2018-04-19T22:34:21.014Z,101082
2018-04-19T22:39:22.729Z,101091
2018-04-19T22:44:25.088Z,101088
2018-04-19T22:49:26.681Z,101077
2018-04-19T22:54:28.228Z,101079
2018-04-19T22:59:29.806Z,101084
2018-04-19T23:04:31.527Z,101081
2018-04-19T23:09:33.071Z,101090
2018-04-19T23:14:35.569Z,101084
2018-04-19T23:19:37.139Z,101081
2018-04-19T23:24:39.551Z,101082
2018-04-19T23:29:41.092Z,101080
2018-04-19T23:34:43.379Z,101074
2018-04-19T23:39:45.725Z,101075
2018-04-19T23:44:47.313Z,101072
2018-04-19T23:49:48.935Z,101065
2018-04-19T23:54:50.572Z,101068
2018-04-19T23:59:52.308Z,101072
